sensor_id;sensor_type;location;lat;lon;timestamp;P1;durP1;ratioP1;P2;durP2;ratioP2
25980;SDS011;13772;52.996;9.124;2023-09-19T07:24:37;10.30;;;2.30;;
25980;SDS011;13772;52.996;9.124;2023-09-19T07:27:03;7.43;;;2.05;;
25980;SDS011;13772;52.996;9.124;2023-09-19T07:29:30;14.20;;;2.67;;
25980;SDS011;13772;52.996;9.124;2023-09-19T07:31:55;11.70;;;2.50;;
25980;SDS011;13772;52.996;9.124;2023-09-19T07:34:21;9.57;;;2.90;;
25980;SDS011;13772;52.996;9.124;2023-09-19T07:36:48;11.02;;;2.35;;
25980;SDS011;13772;52.996;9.124;2023-09-19T07:39:13;9.75;;;2.55;;
25980;SDS011;13772;52.996;9.124;2023-09-19T07:41:38;9.15;;;2.00;;
25980;SDS011;13772;52.996;9.124;2023-09-19T07:44:04;8.60;;;1.98;;
25980;SDS011;13772;52.996;9.124;2023-09-19T07:46:29;9.95;;;2.53;;
25980;SDS011;13772;52.996;9.124;2023-09-19T07:48:56;9.35;;;2.08;;
25980;SDS011;13772;52.996;9.124;2023-09-19T07:51:21;8.48;;;2.33;;
25980;SDS011;13772;52.996;9.124;2023-09-19T07:53:46;11.13;;;2.13;;
25980;SDS011;13772;52.996;9.124;2023-09-19T07:56:13;8.52;;;2.10;;
25980;SDS011;13772;52.996;9.124;2023-09-19T07:58:39;12.35;;;2.50;;
25980;SDS011;13772;52.996;9.124;2023-09-19T08:01:06;10.85;;;2.17;;
25980;SDS011;13772;52.996;9.124;2023-09-19T08:03:32;13.75;;;2.22;;
25980;SDS011;13772;52.996;9.124;2023-09-19T08:05:57;8.55;;;2.25;;
25980;SDS011;13772;52.996;9.124;2023-09-19T08:08:25;10.73;;;2.17;;
25980;SDS011;13772;52.996;9.124;2023-09-19T08:10:54;10.85;;;2.10;;
25980;SDS011;13772;52.996;9.124;2023-09-19T08:13:21;9.40;;;2.22;;
25980;SDS011;13772;52.996;9.124;2023-09-19T08:15:46;12.02;;;2.28;;
25980;SDS011;13772;52.996;9.124;2023-09-19T08:18:13;11.27;;;2.15;;
25980;SDS011;13772;52.996;9.124;2023-09-19T08:20:38;8.82;;;2.13;;
25980;SDS011;13772;52.996;9.124;2023-09-19T08:23:03;9.40;;;2.58;;
25980;SDS011;13772;52.996;9.124;2023-09-19T08:25:29;10.05;;;2.25;;
25980;SDS011;13772;52.996;9.124;2023-09-19T08:27:54;10.23;;;2.00;;
25980;SDS011;13772;52.996;9.124;2023-09-19T08:30:23;8.75;;;2.25;;
25980;SDS011;13772;52.996;9.124;2023-09-19T08:32:49;9.30;;;2.17;;
25980;SDS011;13772;52.996;9.124;2023-09-19T08:35:14;9.85;;;1.55;;
25980;SDS011;13772;52.996;9.124;2023-09-19T08:37:39;9.48;;;1.77;;
25980;SDS011;13772;52.996;9.124;2023-09-19T08:40:05;7.30;;;1.63;;
25980;SDS011;13772;52.996;9.124;2023-09-19T08:42:47;12.10;;;2.53;;
25980;SDS011;13772;52.996;9.124;2023-09-19T08:45:12;9.30;;;2.00;;
25980;SDS011;13772;52.996;9.124;2023-09-19T08:47:39;17.48;;;2.55;;
25980;SDS011;13772;52.996;9.124;2023-09-19T08:50:14;9.07;;;2.13;;
25980;SDS011;13772;52.996;9.124;2023-09-19T08:52:44;10.05;;;1.85;;
25980;SDS011;13772;52.996;9.124;2023-09-19T08:55:12;10.60;;;2.30;;
25980;SDS011;13772;52.996;9.124;2023-09-19T08:57:37;8.63;;;1.60;;
25980;SDS011;13772;52.996;9.124;2023-09-19T09:00:06;7.13;;;2.08;;
25980;SDS011;13772;52.996;9.124;2023-09-19T09:02:36;10.65;;;2.30;;
25980;SDS011;13772;52.996;9.124;2023-09-19T09:05:02;9.13;;;1.83;;
25980;SDS011;13772;52.996;9.124;2023-09-19T09:07:30;10.25;;;2.30;;
25980;SDS011;13772;52.996;9.124;2023-09-19T09:09:55;10.60;;;2.15;;
25980;SDS011;13772;52.996;9.124;2023-09-19T09:12:21;14.10;;;2.40;;
25980;SDS011;13772;52.996;9.124;2023-09-19T09:14:46;10.10;;;2.10;;
25980;SDS011;13772;52.996;9.124;2023-09-19T09:17:14;14.03;;;2.07;;
25980;SDS011;13772;52.996;9.124;2023-09-19T09:19:40;6.90;;;1.90;;
25980;SDS011;13772;52.996;9.124;2023-09-19T09:22:07;9.88;;;1.92;;
25980;SDS011;13772;52.996;9.124;2023-09-19T09:24:33;13.45;;;2.67;;
25980;SDS011;13772;52.996;9.124;2023-09-19T09:26:59;9.93;;;2.10;;
25980;SDS011;13772;52.996;9.124;2023-09-19T09:32:22;8.30;;;1.80;;
25980;SDS011;13772;52.996;9.124;2023-09-19T09:34:54;7.82;;;1.73;;
25980;SDS011;13772;52.996;9.124;2023-09-19T09:37:20;7.38;;;1.48;;
25980;SDS011;13772;52.996;9.124;2023-09-19T09:39:50;9.13;;;1.50;;
25980;SDS011;13772;52.996;9.124;2023-09-19T09:42:28;8.25;;;1.70;;
25980;SDS011;13772;52.996;9.124;2023-09-19T09:45:15;11.38;;;2.28;;
25980;SDS011;13772;52.996;9.124;2023-09-19T09:47:47;7.03;;;1.70;;
25980;SDS011;13772;52.996;9.124;2023-09-19T09:50:27;9.95;;;2.10;;
25980;SDS011;13772;52.996;9.124;2023-09-19T09:53:05;9.77;;;2.20;;
25980;SDS011;13772;52.996;9.124;2023-09-19T09:55:56;7.63;;;1.40;;
25980;SDS011;13772;52.996;9.124;2023-09-19T09:58:22;9.88;;;2.92;;
25980;SDS011;13772;52.996;9.124;2023-09-19T10:00:53;6.78;;;1.75;;
25980;SDS011;13772;52.996;9.124;2023-09-19T10:03:31;5.95;;;1.65;;
25980;SDS011;13772;52.996;9.124;2023-09-19T10:05:56;8.30;;;1.98;;
25980;SDS011;13772;52.996;9.124;2023-09-19T10:08:23;7.45;;;1.70;;
25980;SDS011;13772;52.996;9.124;2023-09-19T10:10:48;8.80;;;1.52;;
25980;SDS011;13772;52.996;9.124;2023-09-19T10:13:28;6.72;;;1.90;;
25980;SDS011;13772;52.996;9.124;2023-09-19T10:15:55;8.90;;;2.28;;
25980;SDS011;13772;52.996;9.124;2023-09-19T10:18:24;6.90;;;1.60;;
25980;SDS011;13772;52.996;9.124;2023-09-19T10:20:50;7.07;;;1.83;;
25980;SDS011;13772;52.996;9.124;2023-09-19T10:23:19;8.40;;;1.88;;
25980;SDS011;13772;52.996;9.124;2023-09-19T10:25:48;10.57;;;2.17;;
25980;SDS011;13772;52.996;9.124;2023-09-19T10:28:15;9.38;;;2.00;;
25980;SDS011;13772;52.996;9.124;2023-09-19T10:30:41;8.88;;;2.15;;
25980;SDS011;13772;52.996;9.124;2023-09-19T10:33:08;7.63;;;1.70;;
25980;SDS011;13772;52.996;9.124;2023-09-19T10:35:34;9.80;;;1.85;;
25980;SDS011;13772;52.996;9.124;2023-09-19T10:38:03;10.93;;;2.05;;
25980;SDS011;13772;52.996;9.124;2023-09-19T10:40:28;6.43;;;1.60;;
25980;SDS011;13772;52.996;9.124;2023-09-19T10:43:03;9.02;;;2.08;;
25980;SDS011;13772;52.996;9.124;2023-09-19T10:45:32;6.60;;;1.90;;
25980;SDS011;13772;52.996;9.124;2023-09-19T10:47:57;10.82;;;1.85;;
25980;SDS011;13772;52.996;9.124;2023-09-19T10:50:23;8.30;;;2.00;;
25980;SDS011;13772;52.996;9.124;2023-09-19T10:52:49;7.03;;;1.90;;
25980;SDS011;13772;52.996;9.124;2023-09-19T10:55:23;10.23;;;2.40;;
25980;SDS011;13772;52.996;9.124;2023-09-19T10:57:49;8.55;;;2.45;;
25980;SDS011;13772;52.996;9.124;2023-09-19T11:00:14;8.75;;;2.47;;
25980;SDS011;13772;52.996;9.124;2023-09-19T11:05:34;8.38;;;1.90;;
25980;SDS011;13772;52.996;9.124;2023-09-19T11:07:59;10.80;;;2.78;;
25980;SDS011;13772;52.996;9.124;2023-09-19T11:10:48;10.50;;;2.30;;
25980;SDS011;13772;52.996;9.124;2023-09-19T11:13:23;7.28;;;2.20;;
25980;SDS011;13772;52.996;9.124;2023-09-19T11:26:43;10.55;;;2.50;;
25980;SDS011;13772;52.996;9.124;2023-09-19T11:29:24;13.13;;;2.85;;
25980;SDS011;13772;52.996;9.124;2023-09-19T11:31:50;10.38;;;2.40;;
25980;SDS011;13772;52.996;9.124;2023-09-19T11:37:00;11.45;;;2.42;;
25980;SDS011;13772;52.996;9.124;2023-09-19T11:39:26;6.82;;;2.45;;
25980;SDS011;13772;52.996;9.124;2023-09-19T11:41:52;5.65;;;1.83;;
25980;SDS011;13772;52.996;9.124;2023-09-19T11:46:51;7.65;;;1.67;;
25980;SDS011;13772;52.996;9.124;2023-09-19T11:49:17;8.75;;;2.17;;
25980;SDS011;13772;52.996;9.124;2023-09-19T11:51:48;8.50;;;2.58;;
25980;SDS011;13772;52.996;9.124;2023-09-19T11:54:17;9.70;;;2.10;;
25980;SDS011;13772;52.996;9.124;2023-09-19T11:56:50;7.10;;;2.03;;
25980;SDS011;13772;52.996;9.124;2023-09-19T11:59:25;9.32;;;2.17;;
25980;SDS011;13772;52.996;9.124;2023-09-19T12:01:55;8.27;;;1.85;;
25980;SDS011;13772;52.996;9.124;2023-09-19T12:07:05;10.57;;;2.05;;
25980;SDS011;13772;52.996;9.124;2023-09-19T12:09:35;9.18;;;2.03;;
25980;SDS011;13772;52.996;9.124;2023-09-19T12:12:00;8.68;;;2.03;;
25980;SDS011;13772;52.996;9.124;2023-09-19T12:14:26;6.80;;;2.17;;
25980;SDS011;13772;52.996;9.124;2023-09-19T12:16:53;10.50;;;2.30;;
25980;SDS011;13772;52.996;9.124;2023-09-19T12:19:20;7.90;;;1.92;;
25980;SDS011;13772;52.996;9.124;2023-09-19T12:21:54;10.10;;;2.10;;
25980;SDS011;13772;52.996;9.124;2023-09-19T12:24:19;8.82;;;2.22;;
25980;SDS011;13772;52.996;9.124;2023-09-19T12:26:45;8.27;;;1.70;;
25980;SDS011;13772;52.996;9.124;2023-09-19T12:29:13;8.85;;;1.92;;
25980;SDS011;13772;52.996;9.124;2023-09-19T12:34:16;6.68;;;2.15;;
25980;SDS011;13772;52.996;9.124;2023-09-19T12:36:41;7.75;;;2.10;;
25980;SDS011;13772;52.996;9.124;2023-09-19T12:39:07;4.03;;;1.75;;
25980;SDS011;13772;52.996;9.124;2023-09-19T12:41:34;6.38;;;1.92;;
25980;SDS011;13772;52.996;9.124;2023-09-19T12:43:59;8.18;;;2.00;;
25980;SDS011;13772;52.996;9.124;2023-09-19T12:46:25;10.07;;;2.13;;
25980;SDS011;13772;52.996;9.124;2023-09-19T12:51:35;5.80;;;1.80;;
25980;SDS011;13772;52.996;9.124;2023-09-19T12:54:01;7.38;;;2.10;;
25980;SDS011;13772;52.996;9.124;2023-09-19T12:56:27;9.38;;;2.40;;
25980;SDS011;13772;52.996;9.124;2023-09-19T12:58:54;8.48;;;2.35;;
25980;SDS011;13772;52.996;9.124;2023-09-19T13:01:20;5.85;;;1.85;;
25980;SDS011;13772;52.996;9.124;2023-09-19T13:03:45;8.23;;;2.13;;
25980;SDS011;13772;52.996;9.124;2023-09-19T13:06:11;6.47;;;1.77;;
25980;SDS011;13772;52.996;9.124;2023-09-19T13:08:40;10.20;;;2.30;;
25980;SDS011;13772;52.996;9.124;2023-09-19T13:11:13;14.02;;;2.20;;
25980;SDS011;13772;52.996;9.124;2023-09-19T13:16:04;10.45;;;2.30;;
25980;SDS011;13772;52.996;9.124;2023-09-19T13:18:49;8.90;;;2.42;;
25980;SDS011;13772;52.996;9.124;2023-09-19T13:21:16;8.25;;;2.03;;
25980;SDS011;13772;52.996;9.124;2023-09-19T13:23:49;10.50;;;2.35;;
25980;SDS011;13772;52.996;9.124;2023-09-19T13:26:14;7.65;;;2.30;;
25980;SDS011;13772;52.996;9.124;2023-09-19T13:28:40;9.77;;;2.35;;
25980;SDS011;13772;52.996;9.124;2023-09-19T13:31:05;9.25;;;2.05;;
25980;SDS011;13772;52.996;9.124;2023-09-19T13:33:31;7.22;;;1.92;;
25980;SDS011;13772;52.996;9.124;2023-09-19T13:35:56;9.07;;;1.90;;
25980;SDS011;13772;52.996;9.124;2023-09-19T13:38:22;10.65;;;2.30;;
25980;SDS011;13772;52.996;9.124;2023-09-19T13:40:47;8.45;;;2.10;;
25980;SDS011;13772;52.996;9.124;2023-09-19T13:43:13;9.05;;;2.53;;
25980;SDS011;13772;52.996;9.124;2023-09-19T13:45:38;10.18;;;2.20;;
25980;SDS011;13772;52.996;9.124;2023-09-19T13:48:07;6.93;;;2.13;;
25980;SDS011;13772;52.996;9.124;2023-09-19T13:50:34;7.93;;;2.00;;
25980;SDS011;13772;52.996;9.124;2023-09-19T13:52:59;6.72;;;1.70;;
25980;SDS011;13772;52.996;9.124;2023-09-19T13:55:25;9.18;;;2.20;;
25980;SDS011;13772;52.996;9.124;2023-09-19T13:57:50;8.55;;;2.17;;
25980;SDS011;13772;52.996;9.124;2023-09-19T14:00:19;9.25;;;2.30;;
25980;SDS011;13772;52.996;9.124;2023-09-19T14:02:44;7.68;;;1.85;;
25980;SDS011;13772;52.996;9.124;2023-09-19T14:05:10;9.88;;;2.20;;
25980;SDS011;13772;52.996;9.124;2023-09-19T14:07:40;9.43;;;2.03;;
25980;SDS011;13772;52.996;9.124;2023-09-19T14:10:06;9.63;;;2.08;;
25980;SDS011;13772;52.996;9.124;2023-09-19T14:12:33;8.18;;;2.05;;
25980;SDS011;13772;52.996;9.124;2023-09-19T14:14:59;6.88;;;2.50;;
25980;SDS011;13772;52.996;9.124;2023-09-19T14:17:25;8.38;;;2.63;;
25980;SDS011;13772;52.996;9.124;2023-09-19T14:19:50;7.30;;;2.08;;
25980;SDS011;13772;52.996;9.124;2023-09-19T14:22:16;9.60;;;2.15;;
25980;SDS011;13772;52.996;9.124;2023-09-19T14:24:41;7.78;;;2.15;;
25980;SDS011;13772;52.996;9.124;2023-09-19T14:27:07;8.05;;;1.75;;
25980;SDS011;13772;52.996;9.124;2023-09-19T14:29:34;8.98;;;1.88;;
25980;SDS011;13772;52.996;9.124;2023-09-19T14:31:59;9.63;;;2.55;;
25980;SDS011;13772;52.996;9.124;2023-09-19T14:34:24;9.32;;;2.20;;
25980;SDS011;13772;52.996;9.124;2023-09-19T14:36:49;8.95;;;2.45;;
25980;SDS011;13772;52.996;9.124;2023-09-19T14:39:15;10.13;;;2.30;;
25980;SDS011;13772;52.996;9.124;2023-09-19T14:41:40;12.63;;;2.22;;
25980;SDS011;13772;52.996;9.124;2023-09-19T14:44:05;10.07;;;2.70;;
25980;SDS011;13772;52.996;9.124;2023-09-19T14:46:31;8.75;;;2.13;;
25980;SDS011;13772;52.996;9.124;2023-09-19T14:48:56;11.90;;;2.28;;
25980;SDS011;13772;52.996;9.124;2023-09-19T14:51:25;8.07;;;2.20;;
25980;SDS011;13772;52.996;9.124;2023-09-19T14:53:50;8.52;;;1.98;;
25980;SDS011;13772;52.996;9.124;2023-09-19T14:56:15;5.53;;;1.88;;
25980;SDS011;13772;52.996;9.124;2023-09-19T14:58:43;6.30;;;1.80;;
25980;SDS011;13772;52.996;9.124;2023-09-19T15:01:09;10.60;;;2.15;;
25980;SDS011;13772;52.996;9.124;2023-09-19T15:03:37;10.50;;;2.08;;
25980;SDS011;13772;52.996;9.124;2023-09-19T15:06:05;6.90;;;1.92;;
25980;SDS011;13772;52.996;9.124;2023-09-19T15:08:31;7.75;;;1.85;;
25980;SDS011;13772;52.996;9.124;2023-09-19T15:10:56;7.75;;;1.80;;
25980;SDS011;13772;52.996;9.124;2023-09-19T15:13:23;11.13;;;2.13;;
25980;SDS011;13772;52.996;9.124;2023-09-19T15:15:52;7.68;;;2.25;;
25980;SDS011;13772;52.996;9.124;2023-09-19T15:18:18;9.57;;;1.95;;
25980;SDS011;13772;52.996;9.124;2023-09-19T15:20:44;6.18;;;1.60;;
25980;SDS011;13772;52.996;9.124;2023-09-19T15:23:09;9.13;;;2.00;;
25980;SDS011;13772;52.996;9.124;2023-09-19T15:25:35;9.98;;;1.83;;
25980;SDS011;13772;52.996;9.124;2023-09-19T15:28:00;6.97;;;1.70;;
25980;SDS011;13772;52.996;9.124;2023-09-19T15:30:36;8.93;;;2.10;;
25980;SDS011;13772;52.996;9.124;2023-09-19T15:33:01;6.13;;;1.95;;
25980;SDS011;13772;52.996;9.124;2023-09-19T15:35:26;8.10;;;2.20;;
25980;SDS011;13772;52.996;9.124;2023-09-19T15:37:52;6.95;;;1.75;;
25980;SDS011;13772;52.996;9.124;2023-09-19T15:40:18;10.48;;;1.95;;
25980;SDS011;13772;52.996;9.124;2023-09-19T15:42:44;9.88;;;1.92;;
25980;SDS011;13772;52.996;9.124;2023-09-19T15:45:09;8.50;;;1.83;;
25980;SDS011;13772;52.996;9.124;2023-09-19T15:47:36;10.10;;;2.30;;
25980;SDS011;13772;52.996;9.124;2023-09-19T15:50:02;10.05;;;2.47;;
25980;SDS011;13772;52.996;9.124;2023-09-19T15:52:28;12.18;;;2.55;;
25980;SDS011;13772;52.996;9.124;2023-09-19T15:54:53;9.00;;;2.10;;
25980;SDS011;13772;52.996;9.124;2023-09-19T15:57:19;9.50;;;1.88;;
25980;SDS011;13772;52.996;9.124;2023-09-19T15:59:44;9.38;;;2.17;;
25980;SDS011;13772;52.996;9.124;2023-09-19T16:02:11;6.20;;;1.80;;
25980;SDS011;13772;52.996;9.124;2023-09-19T16:04:37;9.85;;;1.92;;
25980;SDS011;13772;52.996;9.124;2023-09-19T16:07:03;10.57;;;1.60;;
25980;SDS011;13772;52.996;9.124;2023-09-19T16:09:29;8.48;;;1.92;;
25980;SDS011;13772;52.996;9.124;2023-09-19T16:11:54;9.38;;;2.30;;
25980;SDS011;13772;52.996;9.124;2023-09-19T16:14:19;8.80;;;1.98;;
25980;SDS011;13772;52.996;9.124;2023-09-19T16:16:45;5.35;;;1.80;;
25980;SDS011;13772;52.996;9.124;2023-09-19T16:19:10;5.55;;;1.55;;
25980;SDS011;13772;52.996;9.124;2023-09-19T16:21:36;9.32;;;2.10;;
25980;SDS011;13772;52.996;9.124;2023-09-19T16:24:02;8.65;;;1.90;;
25980;SDS011;13772;52.996;9.124;2023-09-19T16:26:28;6.65;;;2.08;;
25980;SDS011;13772;52.996;9.124;2023-09-19T16:28:55;6.82;;;2.38;;
25980;SDS011;13772;52.996;9.124;2023-09-19T16:31:26;8.98;;;1.85;;
25980;SDS011;13772;52.996;9.124;2023-09-19T16:33:52;6.25;;;1.65;;
25980;SDS011;13772;52.996;9.124;2023-09-19T16:36:18;6.43;;;1.70;;
25980;SDS011;13772;52.996;9.124;2023-09-19T16:38:44;8.93;;;1.75;;
25980;SDS011;13772;52.996;9.124;2023-09-19T16:41:09;6.43;;;1.92;;
25980;SDS011;13772;52.996;9.124;2023-09-19T16:43:35;5.80;;;1.70;;
25980;SDS011;13772;52.996;9.124;2023-09-19T16:46:07;10.05;;;2.22;;
25980;SDS011;13772;52.996;9.124;2023-09-19T16:48:36;6.13;;;1.58;;
25980;SDS011;13772;52.996;9.124;2023-09-19T16:51:02;13.23;;;2.25;;
25980;SDS011;13772;52.996;9.124;2023-09-19T16:53:32;8.20;;;1.75;;
25980;SDS011;13772;52.996;9.124;2023-09-19T16:56:00;7.25;;;1.60;;
25980;SDS011;13772;52.996;9.124;2023-09-19T16:58:26;8.68;;;1.77;;
25980;SDS011;13772;52.996;9.124;2023-09-19T17:00:51;6.03;;;1.45;;
25980;SDS011;13772;52.996;9.124;2023-09-19T17:03:16;6.28;;;1.70;;
25980;SDS011;13772;52.996;9.124;2023-09-19T17:05:41;6.95;;;1.80;;
25980;SDS011;13772;52.996;9.124;2023-09-19T17:08:08;5.57;;;1.73;;
25980;SDS011;13772;52.996;9.124;2023-09-19T17:10:33;10.57;;;1.95;;
25980;SDS011;13772;52.996;9.124;2023-09-19T17:13:02;4.32;;;1.50;;
25980;SDS011;13772;52.996;9.124;2023-09-19T17:15:31;9.10;;;1.60;;
25980;SDS011;13772;52.996;9.124;2023-09-19T17:17:57;6.32;;;1.50;;
25980;SDS011;13772;52.996;9.124;2023-09-19T17:20:23;8.48;;;1.80;;
25980;SDS011;13772;52.996;9.124;2023-09-19T17:22:48;5.40;;;1.13;;
25980;SDS011;13772;52.996;9.124;2023-09-19T17:25:13;7.28;;;1.90;;
25980;SDS011;13772;52.996;9.124;2023-09-19T17:27:39;7.78;;;1.40;;
25980;SDS011;13772;52.996;9.124;2023-09-19T17:30:08;4.80;;;1.30;;
25980;SDS011;13772;52.996;9.124;2023-09-19T17:32:36;6.30;;;1.50;;
25980;SDS011;13772;52.996;9.124;2023-09-19T17:35:01;5.72;;;1.52;;
25980;SDS011;13772;52.996;9.124;2023-09-19T17:37:28;7.22;;;1.55;;
25980;SDS011;13772;52.996;9.124;2023-09-19T17:39:53;9.23;;;1.77;;
25980;SDS011;13772;52.996;9.124;2023-09-19T17:42:18;5.20;;;1.80;;
25980;SDS011;13772;52.996;9.124;2023-09-19T17:44:44;5.97;;;1.33;;
25980;SDS011;13772;52.996;9.124;2023-09-19T17:47:09;11.45;;;1.95;;
25980;SDS011;13772;52.996;9.124;2023-09-19T17:49:34;6.22;;;2.15;;
25980;SDS011;13772;52.996;9.124;2023-09-19T17:51:59;6.18;;;1.52;;
25980;SDS011;13772;52.996;9.124;2023-09-19T17:54:25;7.78;;;1.48;;
25980;SDS011;13772;52.996;9.124;2023-09-19T17:56:50;5.35;;;1.23;;
25980;SDS011;13772;52.996;9.124;2023-09-19T17:59:15;3.58;;;0.90;;
25980;SDS011;13772;52.996;9.124;2023-09-19T18:01:41;5.50;;;1.20;;
25980;SDS011;13772;52.996;9.124;2023-09-19T18:04:09;5.45;;;1.38;;
25980;SDS011;13772;52.996;9.124;2023-09-19T18:06:34;4.80;;;1.65;;
25980;SDS011;13772;52.996;9.124;2023-09-19T18:09:00;4.53;;;1.05;;
25980;SDS011;13772;52.996;9.124;2023-09-19T18:11:26;5.47;;;1.52;;
25980;SDS011;13772;52.996;9.124;2023-09-19T18:13:54;6.05;;;1.40;;
25980;SDS011;13772;52.996;9.124;2023-09-19T18:16:20;5.55;;;1.40;;
25980;SDS011;13772;52.996;9.124;2023-09-19T18:18:45;4.20;;;1.13;;
25980;SDS011;13772;52.996;9.124;2023-09-19T18:21:14;4.85;;;1.00;;
25980;SDS011;13772;52.996;9.124;2023-09-19T18:23:39;6.63;;;1.50;;
25980;SDS011;13772;52.996;9.124;2023-09-19T18:26:05;6.43;;;1.20;;
25980;SDS011;13772;52.996;9.124;2023-09-19T18:28:30;5.53;;;1.20;;
25980;SDS011;13772;52.996;9.124;2023-09-19T18:30:56;6.65;;;1.40;;
25980;SDS011;13772;52.996;9.124;2023-09-19T18:33:22;6.82;;;1.40;;
25980;SDS011;13772;52.996;9.124;2023-09-19T18:35:47;3.33;;;1.25;;
25980;SDS011;13772;52.996;9.124;2023-09-19T18:38:12;7.88;;;1.35;;
25980;SDS011;13772;52.996;9.124;2023-09-19T18:40:42;7.18;;;2.03;;
25980;SDS011;13772;52.996;9.124;2023-09-19T18:43:07;5.55;;;1.50;;
25980;SDS011;13772;52.996;9.124;2023-09-19T18:45:32;4.82;;;1.00;;
25980;SDS011;13772;52.996;9.124;2023-09-19T18:47:57;6.32;;;1.38;;
25980;SDS011;13772;52.996;9.124;2023-09-19T18:50:24;4.40;;;0.90;;
25980;SDS011;13772;52.996;9.124;2023-09-19T18:52:49;6.75;;;1.30;;
25980;SDS011;13772;52.996;9.124;2023-09-19T18:55:16;5.95;;;1.38;;
25980;SDS011;13772;52.996;9.124;2023-09-19T18:57:43;6.28;;;1.95;;
25980;SDS011;13772;52.996;9.124;2023-09-19T19:00:08;4.85;;;1.70;;
25980;SDS011;13772;52.996;9.124;2023-09-19T19:02:35;7.03;;;1.55;;
25980;SDS011;13772;52.996;9.124;2023-09-19T19:05:00;3.00;;;1.10;;
25980;SDS011;13772;52.996;9.124;2023-09-19T19:07:26;4.82;;;1.20;;
25980;SDS011;13772;52.996;9.124;2023-09-19T19:09:51;4.18;;;1.00;;
25980;SDS011;13772;52.996;9.124;2023-09-19T19:12:17;6.40;;;1.13;;
25980;SDS011;13772;52.996;9.124;2023-09-19T19:14:42;5.53;;;0.98;;
25980;SDS011;13772;52.996;9.124;2023-09-19T19:17:09;5.43;;;1.00;;
25980;SDS011;13772;52.996;9.124;2023-09-19T19:19:37;4.68;;;0.98;;
25980;SDS011;13772;52.996;9.124;2023-09-19T19:22:02;3.20;;;0.95;;
25980;SDS011;13772;52.996;9.124;2023-09-19T19:24:28;5.80;;;1.30;;
25980;SDS011;13772;52.996;9.124;2023-09-19T19:26:54;4.97;;;1.73;;
25980;SDS011;13772;52.996;9.124;2023-09-19T19:29:19;5.40;;;1.20;;
25980;SDS011;13772;52.996;9.124;2023-09-19T19:31:45;5.97;;;1.42;;
25980;SDS011;13772;52.996;9.124;2023-09-19T19:34:11;4.47;;;1.00;;
25980;SDS011;13772;52.996;9.124;2023-09-19T19:36:36;5.97;;;1.00;;
25980;SDS011;13772;52.996;9.124;2023-09-19T19:39:02;5.68;;;1.75;;
25980;SDS011;13772;52.996;9.124;2023-09-19T19:41:27;3.63;;;1.15;;
25980;SDS011;13772;52.996;9.124;2023-09-19T19:43:53;6.43;;;1.40;;
25980;SDS011;13772;52.996;9.124;2023-09-19T19:46:18;4.78;;;1.60;;
25980;SDS011;13772;52.996;9.124;2023-09-19T19:48:47;5.22;;;1.30;;
25980;SDS011;13772;52.996;9.124;2023-09-19T19:51:13;7.35;;;1.23;;
25980;SDS011;13772;52.996;9.124;2023-09-19T19:53:38;3.60;;;1.00;;
25980;SDS011;13772;52.996;9.124;2023-09-19T19:56:04;5.85;;;1.00;;
25980;SDS011;13772;52.996;9.124;2023-09-19T19:58:31;5.53;;;1.13;;
25980;SDS011;13772;52.996;9.124;2023-09-19T20:00:56;4.88;;;1.10;;
25980;SDS011;13772;52.996;9.124;2023-09-19T20:03:21;7.13;;;1.65;;
25980;SDS011;13772;52.996;9.124;2023-09-19T20:05:47;4.15;;;1.00;;
25980;SDS011;13772;52.996;9.124;2023-09-19T20:08:13;5.70;;;1.00;;
25980;SDS011;13772;52.996;9.124;2023-09-19T20:10:39;5.78;;;1.50;;
25980;SDS011;13772;52.996;9.124;2023-09-19T20:13:05;5.13;;;1.20;;
25980;SDS011;13772;52.996;9.124;2023-09-19T20:15:31;3.40;;;1.20;;
25980;SDS011;13772;52.996;9.124;2023-09-19T20:17:58;3.92;;;1.15;;
25980;SDS011;13772;52.996;9.124;2023-09-19T20:20:24;4.20;;;1.10;;
25980;SDS011;13772;52.996;9.124;2023-09-19T20:22:51;4.85;;;1.27;;
25980;SDS011;13772;52.996;9.124;2023-09-19T20:25:16;3.25;;;0.98;;
25980;SDS011;13772;52.996;9.124;2023-09-19T20:27:42;4.25;;;1.13;;
25980;SDS011;13772;52.996;9.124;2023-09-19T20:30:09;4.78;;;1.13;;
25980;SDS011;13772;52.996;9.124;2023-09-19T20:32:37;7.72;;;1.83;;
25980;SDS011;13772;52.996;9.124;2023-09-19T20:35:02;5.60;;;1.08;;
25980;SDS011;13772;52.996;9.124;2023-09-19T20:37:28;4.13;;;1.30;;
25980;SDS011;13772;52.996;9.124;2023-09-19T20:39:53;4.38;;;1.23;;
25980;SDS011;13772;52.996;9.124;2023-09-19T20:42:19;9.50;;;1.27;;
25980;SDS011;13772;52.996;9.124;2023-09-19T20:44:46;5.07;;;1.00;;
25980;SDS011;13772;52.996;9.124;2023-09-19T20:47:11;5.55;;;1.10;;
25980;SDS011;13772;52.996;9.124;2023-09-19T20:49:37;4.68;;;1.25;;
25980;SDS011;13772;52.996;9.124;2023-09-19T20:52:02;6.63;;;1.40;;
25980;SDS011;13772;52.996;9.124;2023-09-19T20:54:28;5.82;;;1.45;;
25980;SDS011;13772;52.996;9.124;2023-09-19T20:56:53;4.97;;;1.02;;
25980;SDS011;13772;52.996;9.124;2023-09-19T20:59:19;7.10;;;1.33;;
25980;SDS011;13772;52.996;9.124;2023-09-19T21:01:45;4.20;;;1.27;;
25980;SDS011;13772;52.996;9.124;2023-09-19T21:04:11;5.18;;;1.35;;
25980;SDS011;13772;52.996;9.124;2023-09-19T21:06:36;4.22;;;1.08;;
25980;SDS011;13772;52.996;9.124;2023-09-19T21:09:01;4.72;;;1.15;;
25980;SDS011;13772;52.996;9.124;2023-09-19T21:11:27;5.60;;;1.55;;
25980;SDS011;13772;52.996;9.124;2023-09-19T21:13:53;5.45;;;1.30;;
25980;SDS011;13772;52.996;9.124;2023-09-19T21:16:18;2.65;;;1.35;;
25980;SDS011;13772;52.996;9.124;2023-09-19T21:18:47;6.80;;;1.42;;
25980;SDS011;13772;52.996;9.124;2023-09-19T21:21:12;6.72;;;1.67;;
25980;SDS011;13772;52.996;9.124;2023-09-19T21:23:38;5.85;;;1.23;;
25980;SDS011;13772;52.996;9.124;2023-09-19T21:26:04;5.05;;;1.48;;
25980;SDS011;13772;52.996;9.124;2023-09-19T21:28:30;4.60;;;1.10;;
25980;SDS011;13772;52.996;9.124;2023-09-19T21:30:56;4.57;;;1.25;;
25980;SDS011;13772;52.996;9.124;2023-09-19T21:33:22;6.30;;;1.58;;
25980;SDS011;13772;52.996;9.124;2023-09-19T21:35:47;6.13;;;1.45;;
25980;SDS011;13772;52.996;9.124;2023-09-19T21:38:13;8.38;;;1.50;;
25980;SDS011;13772;52.996;9.124;2023-09-19T21:40:38;4.60;;;1.20;;
